createdAt,value
2022-08-07T00:04:58.910Z,9.10
2022-08-07T00:07:27.292Z,10.73
2022-08-07T00:25:26.733Z,8.85
2022-08-07T00:27:56.682Z,6.78
2022-08-07T00:30:28.570Z,7.32
2022-08-07T00:33:01.254Z,9.05
2022-08-07T00:38:42.150Z,8.32
2022-08-07T00:41:15.104Z,8.98
2022-08-07T00:50:50.796Z,12.83
2022-08-07T00:56:56.834Z,8.40
2022-08-07T00:59:35.387Z,9.95
2022-08-07T01:02:29.686Z,9.43
2022-08-07T01:04:59.354Z,10.73
2022-08-07T01:07:29.639Z,10.18
2022-08-07T01:10:06.067Z,11.23
2022-08-07T01:12:53.087Z,10.32
2022-08-07T01:16:00.657Z,11.10
2022-08-07T01:18:16.880Z,8.32
2022-08-07T01:20:57.324Z,10.80
2022-08-07T01:23:36.739Z,10.15
2022-08-07T01:26:12.079Z,8.40
2022-08-07T01:28:52.009Z,7.22
2022-08-07T01:31:42.361Z,9.75
2022-08-07T01:34:14.481Z,8.48
2022-08-07T01:36:57.649Z,13.63
2022-08-07T01:39:40.482Z,8.50
2022-08-07T01:42:39.473Z,12.50
2022-08-07T01:45:09.966Z,8.63
2022-08-07T01:48:29.365Z,11.95
2022-08-07T01:50:40.282Z,9.77
2022-08-07T01:53:20.857Z,9.07
2022-08-07T01:56:03.288Z,8.70
2022-08-07T01:58:40.159Z,9.70
2022-08-07T02:02:02.432Z,10.15
2022-08-07T02:05:16.150Z,10.93
2022-08-07T02:08:10.464Z,10.20
2022-08-07T02:10:54.882Z,11.40
2022-08-07T02:13:58.068Z,6.80
2022-08-07T02:16:33.301Z,9.23
2022-08-07T02:20:04.903Z,8.85
2022-08-07T02:21:58.674Z,13.30
2022-08-07T02:24:29.312Z,11.43
2022-08-07T02:27:02.576Z,9.52
2022-08-07T02:29:43.545Z,13.98
2022-08-07T02:32:26.989Z,11.77
2022-08-07T02:35:00.977Z,9.02
2022-08-07T02:37:58.232Z,14.02
2022-08-07T02:40:34.992Z,7.03
2022-08-07T02:43:07.794Z,7.47
2022-08-07T02:46:03.741Z,8.65
2022-08-07T02:48:34.457Z,10.43
2022-08-07T02:51:28.876Z,10.60
2022-08-07T02:54:03.736Z,6.43
2022-08-07T02:56:33.689Z,10.02
2022-08-07T02:59:06.132Z,11.38
2022-08-07T03:01:39.966Z,7.88
2022-08-07T03:04:17.203Z,10.43
2022-08-07T03:06:48.370Z,8.70
2022-08-07T03:09:42.101Z,8.77
2022-08-07T03:12:16.175Z,14.07
2022-08-07T03:14:52.839Z,9.07
2022-08-07T03:17:23.191Z,15.17
2022-08-07T03:19:55.537Z,12.25
2022-08-07T03:22:29.562Z,11.38
2022-08-07T03:25:00.361Z,12.43
2022-08-07T03:27:59.400Z,12.75
2022-08-07T03:30:24.407Z,11.15
2022-08-07T03:32:58.643Z,11.50
2022-08-07T03:35:43.889Z,8.95
2022-08-07T03:38:45.968Z,10.65
2022-08-07T03:41:16.255Z,9.82
2022-08-07T03:43:56.891Z,15.27
2022-08-07T03:46:31.898Z,9.57
2022-08-07T03:49:05.324Z,7.40
2022-08-07T03:51:47.801Z,10.02
2022-08-07T03:54:35.726Z,8.48
2022-08-07T03:58:32.597Z,9.35
2022-08-07T04:00:36.772Z,10.55
2022-08-07T04:03:05.814Z,6.35
2022-08-07T04:05:42.448Z,11.48
2022-08-07T04:08:20.885Z,7.30
2022-08-07T04:10:54.617Z,7.22
2022-08-07T04:14:10.310Z,7.40
2022-08-07T04:16:35.349Z,7.15
2022-08-07T04:19:14.894Z,7.35
2022-08-07T04:22:19.585Z,7.85
2022-08-07T04:24:51.571Z,9.05
2022-08-07T04:28:00.301Z,9.02
2022-08-07T04:30:39.527Z,9.38
2022-08-07T04:33:28.944Z,9.02
2022-08-07T04:36:00.732Z,9.07
2022-08-07T04:38:36.420Z,8.25
2022-08-07T04:41:05.069Z,8.52
2022-08-07T04:44:12.928Z,8.07
2022-08-07T04:47:04.591Z,6.85
2022-08-07T04:49:57.444Z,6.22
2022-08-07T04:52:34.656Z,11.48
2022-08-07T04:58:16.215Z,7.38
2022-08-07T04:59:09.068Z,6.90
2022-08-07T05:01:36.021Z,5.05
2022-08-07T05:04:22.784Z,8.82
2022-08-07T05:07:20.488Z,5.68
2022-08-07T05:10:04.695Z,7.85
2022-08-07T05:12:58.506Z,9.75
2022-08-07T05:15:36.149Z,7.75
2022-08-07T05:18:25.426Z,5.35
2022-08-07T05:20:56.918Z,8.07
2022-08-07T05:23:52.789Z,8.30
2022-08-07T05:26:26.210Z,7.85
2022-08-07T05:29:10.401Z,5.82
2022-08-07T05:31:41.372Z,7.30
2022-08-07T05:34:26.362Z,4.72
2022-08-07T05:36:57.734Z,9.82
2022-08-07T05:40:13.423Z,6.47
2022-08-07T05:42:55.878Z,6.90
2022-08-07T05:46:12.204Z,5.50
2022-08-07T05:48:58.198Z,5.13
2022-08-07T05:54:55.824Z,12.88
2022-08-07T05:57:30.478Z,6.65
2022-08-07T06:00:05.068Z,8.15
2022-08-07T06:02:50.659Z,5.93
2022-08-07T06:05:23.177Z,8.60
2022-08-07T06:08:14.392Z,2.85
2022-08-07T06:10:51.329Z,3.80
2022-08-07T06:14:11.595Z,9.85
2022-08-07T06:16:13.270Z,4.40
2022-08-07T06:18:51.708Z,4.05
2022-08-07T06:22:15.814Z,5.72
2022-08-07T06:24:45.814Z,4.57
2022-08-07T06:27:04.110Z,3.45
2022-08-07T06:29:35.133Z,4.03
2022-08-07T06:32:08.453Z,4.00
2022-08-07T06:34:36.253Z,4.32
2022-08-07T06:37:17.204Z,3.47
2022-08-07T06:40:16.668Z,7.28
2022-08-07T06:42:37.700Z,6.65
2022-08-07T06:45:30.258Z,4.15
2022-08-07T06:48:02.377Z,4.72
2022-08-07T06:50:43.251Z,2.83
2022-08-07T06:54:12.179Z,3.28
2022-08-07T06:56:15.418Z,2.80
2022-08-07T07:00:14.211Z,1.90
2022-08-07T07:01:44.099Z,4.53
2022-08-07T07:04:32.220Z,2.15
2022-08-07T07:07:10.641Z,4.53
2022-08-07T07:09:49.161Z,4.03
2022-08-07T07:12:37.583Z,4.40
2022-08-07T07:15:26.499Z,4.10
2022-08-07T07:18:47.499Z,6.93
2022-08-07T07:21:22.189Z,3.20
2022-08-07T07:24:08.775Z,5.68
2022-08-07T07:26:49.689Z,4.63
2022-08-07T07:29:39.520Z,2.10
2022-08-07T07:32:14.568Z,5.80
2022-08-07T07:34:55.982Z,6.10
2022-08-07T07:37:47.256Z,4.65
2022-08-07T07:40:19.738Z,4.47
2022-08-07T07:42:54.066Z,6.20
2022-08-07T07:46:37.414Z,2.83
2022-08-07T07:48:35.258Z,3.40
2022-08-07T07:51:07.918Z,4.55
2022-08-07T07:53:52.184Z,3.92
2022-08-07T07:56:29.697Z,4.18
2022-08-07T07:59:01.705Z,3.50
2022-08-07T08:02:01.888Z,6.07
2022-08-07T08:04:25.851Z,2.65
2022-08-07T08:06:56.257Z,5.97
2022-08-07T08:09:29.486Z,4.97
2022-08-07T08:12:02.316Z,5.03
2022-08-07T08:14:37.050Z,5.88
2022-08-07T08:17:55.576Z,4.80
2022-08-07T08:20:17.329Z,5.25
2022-08-07T08:23:14.261Z,8.75
2022-08-07T08:26:06.984Z,4.90
2022-08-07T08:28:44.724Z,5.43
2022-08-07T08:31:30.189Z,6.65
2022-08-07T08:34:12.481Z,3.30
2022-08-07T08:36:59.398Z,2.75
2022-08-07T08:39:39.003Z,6.53
2022-08-07T08:42:16.148Z,3.10
2022-08-07T08:45:18.661Z,2.17
2022-08-07T08:48:15.482Z,6.15
2022-08-07T08:50:52.538Z,2.72
2022-08-07T08:53:43.182Z,3.30
2022-08-07T08:56:26.280Z,2.95
2022-08-07T08:59:25.082Z,2.35
2022-08-07T09:01:59.538Z,2.15
2022-08-07T09:04:59.904Z,8.00
2022-08-07T09:08:08.879Z,6.03
2022-08-07T09:10:52.999Z,3.38
2022-08-07T09:13:37.120Z,3.83
2022-08-07T09:16:29.876Z,5.70
2022-08-07T09:19:44.805Z,5.30
2022-08-07T09:24:27.167Z,3.78
2022-08-07T09:25:17.284Z,2.95
2022-08-07T09:28:03.007Z,4.28
2022-08-07T09:30:59.282Z,2.95
2022-08-07T09:33:58.289Z,4.05
2022-08-07T09:36:27.136Z,2.75
2022-08-07T09:39:52.999Z,5.95
2022-08-07T09:42:33.674Z,3.47
2022-08-07T09:47:25.693Z,3.05
2022-08-07T09:48:29.826Z,4.70
2022-08-07T09:52:15.631Z,5.18
2022-08-07T09:54:47.123Z,2.88
2022-08-07T09:57:46.504Z,3.17
2022-08-07T10:00:20.370Z,1.50
2022-08-07T10:04:05.879Z,1.55
2022-08-07T10:06:55.536Z,1.85
2022-08-07T10:10:00.137Z,2.55
2022-08-07T10:12:53.040Z,1.98
2022-08-07T10:15:50.014Z,1.95
2022-08-07T10:18:53.111Z,4.38
2022-08-07T10:22:12.474Z,3.33
2022-08-07T10:24:39.992Z,1.02
2022-08-07T10:27:17.830Z,3.88
2022-08-07T10:30:07.160Z,4.35
2022-08-07T10:33:15.084Z,4.38
2022-08-07T10:36:14.328Z,2.58
2022-08-07T10:39:02.141Z,2.45
2022-08-07T10:42:00.382Z,1.67
2022-08-07T10:44:50.194Z,1.50
2022-08-07T10:47:26.994Z,0.90
2022-08-07T10:50:25.934Z,2.53
2022-08-07T10:53:08.854Z,4.68
2022-08-07T10:55:43.190Z,3.47
2022-08-07T10:58:32.103Z,1.30
2022-08-07T11:01:23.678Z,1.23
2022-08-07T11:04:23.372Z,2.05
2022-08-07T11:07:56.261Z,0.98
2022-08-07T11:10:20.294Z,3.15
2022-08-07T11:13:04.022Z,2.45
2022-08-07T11:15:38.742Z,1.45
2022-08-07T11:18:31.659Z,3.08
2022-08-07T11:21:11.447Z,2.42
2022-08-07T11:24:11.773Z,2.55
2022-08-07T11:26:51.490Z,3.30
2022-08-07T11:29:42.193Z,1.48
2022-08-07T11:32:33.370Z,3.05
2022-08-07T11:35:10.094Z,5.13
2022-08-07T11:38:10.173Z,3.97
2022-08-07T11:41:04.144Z,1.75
2022-08-07T11:44:11.146Z,1.58
2022-08-07T11:46:48.617Z,2.67
2022-08-07T11:50:30.073Z,2.65
2022-08-07T11:52:35.686Z,2.42
2022-08-07T11:56:14.045Z,2.15
2022-08-07T11:58:55.251Z,2.78
2022-08-07T12:02:02.513Z,1.77
2022-08-07T12:05:04.530Z,2.25
2022-08-07T12:08:04.036Z,2.92
2022-08-07T12:10:42.538Z,2.33
2022-08-07T12:13:36.731Z,1.35
2022-08-07T12:16:35.507Z,1.30
2022-08-07T12:20:02.741Z,1.00
2022-08-07T12:22:58.315Z,2.05
2022-08-07T12:26:05.391Z,5.03
2022-08-07T12:29:09.913Z,1.20
2022-08-07T12:32:02.266Z,2.78
2022-08-07T12:34:34.744Z,1.25
2022-08-07T12:37:16.244Z,4.70
2022-08-07T12:39:57.843Z,2.95
2022-08-07T12:42:28.555Z,0.95
2022-08-07T12:45:06.659Z,5.65
2022-08-07T12:47:46.336Z,5.00
2022-08-07T12:50:40.351Z,3.17
2022-08-07T12:54:36.419Z,4.22
2022-08-07T12:56:32.028Z,2.97
2022-08-07T12:59:02.877Z,2.95
2022-08-07T13:02:22.277Z,4.32
2022-08-07T13:06:02.848Z,3.47
2022-08-07T13:08:31.952Z,1.60
2022-08-07T13:11:09.112Z,3.47
2022-08-07T13:14:09.081Z,2.25
2022-08-07T13:17:01.276Z,3.28
2022-08-07T13:19:51.624Z,1.80
2022-08-07T13:22:37.877Z,2.25
2022-08-07T13:25:15.270Z,2.63
2022-08-07T13:28:11.458Z,2.15
2022-08-07T13:31:01.408Z,2.95
2022-08-07T13:34:32.757Z,2.25
2022-08-07T13:37:00.039Z,2.58
2022-08-07T13:40:33.469Z,1.95
2022-08-07T13:42:39.750Z,3.45
2022-08-07T13:45:20.910Z,2.28
2022-08-07T13:51:27.235Z,2.47
2022-08-07T13:54:00.625Z,1.63
2022-08-07T13:56:36.342Z,3.47
2022-08-07T13:59:15.964Z,4.47
2022-08-07T14:02:03.885Z,1.85
2022-08-07T14:04:36.075Z,3.00
2022-08-07T14:07:10.133Z,2.20
2022-08-07T14:10:12.340Z,2.33
2022-08-07T14:15:42.148Z,1.73
2022-08-07T14:18:28.314Z,2.67
2022-08-07T14:22:02.487Z,7.18
2022-08-07T14:24:33.459Z,2.20
2022-08-07T14:28:09.908Z,1.73
2022-08-07T14:30:04.933Z,1.48
2022-08-07T14:32:48.368Z,2.05
2022-08-07T14:35:44.996Z,2.25
2022-08-07T14:38:26.626Z,2.22
2022-08-07T14:41:04.136Z,2.22
2022-08-07T14:43:58.582Z,2.42
2022-08-07T14:49:16.118Z,2.45
2022-08-07T14:54:59.568Z,2.33
2022-08-07T14:57:58.126Z,2.22
2022-08-07T15:03:00.316Z,3.35
2022-08-07T15:05:55.072Z,5.17
2022-08-07T15:08:54.514Z,3.40
2022-08-07T15:11:50.753Z,1.50
2022-08-07T15:14:21.596Z,3.58
2022-08-07T15:17:00.539Z,2.53
2022-08-07T15:20:33.185Z,2.25
2022-08-07T15:22:33.436Z,2.92
2022-08-07T15:25:17.124Z,4.43
2022-08-07T15:28:30.847Z,1.88
2022-08-07T15:34:01.113Z,1.88
2022-08-07T15:37:03.786Z,3.40
2022-08-07T15:39:17.815Z,2.08
2022-08-07T15:42:44.621Z,3.53
2022-08-07T15:44:53.015Z,1.45
2022-08-07T15:50:37.986Z,2.92
2022-08-07T15:56:02.540Z,2.78
2022-08-07T15:59:00.481Z,2.33
2022-08-07T16:01:45.039Z,1.80
2022-08-07T16:04:33.641Z,1.30
2022-08-07T16:08:31.347Z,2.67
2022-08-07T16:10:14.635Z,2.25
2022-08-07T16:13:58.962Z,2.88
2022-08-07T16:17:03.245Z,2.78
2022-08-07T16:20:33.965Z,2.65
2022-08-07T16:23:54.331Z,3.55
2022-08-07T16:26:59.395Z,2.38
2022-08-07T16:30:30.534Z,3.17
2022-08-07T16:34:02.678Z,1.83
2022-08-07T16:39:48.706Z,3.38
2022-08-07T16:42:34.250Z,3.05
2022-08-07T16:45:07.909Z,3.63
2022-08-07T16:50:13.775Z,3.35
2022-08-07T16:52:35.308Z,2.13
2022-08-07T16:55:08.442Z,4.90
2022-08-07T16:58:04.253Z,4.82
2022-08-07T17:00:44.792Z,3.00
2022-08-07T17:03:58.551Z,2.30
2022-08-07T17:06:57.918Z,4.38
2022-08-07T17:10:06.346Z,7.90
2022-08-07T17:13:14.312Z,5.40
2022-08-07T17:15:51.842Z,2.03
2022-08-07T17:18:30.336Z,3.58
2022-08-07T17:20:58.860Z,2.72
2022-08-07T17:23:41.659Z,2.42
2022-08-07T17:26:23.430Z,4.97
2022-08-07T17:29:08.621Z,2.50
2022-08-07T17:32:03.206Z,1.93
2022-08-07T17:35:33.023Z,2.30
2022-08-07T17:38:05.568Z,3.22
2022-08-07T17:42:02.295Z,4.47
2022-08-07T17:44:33.782Z,3.50
2022-08-07T17:47:44.438Z,4.05
2022-08-07T17:51:01.690Z,1.98
2022-08-07T17:54:00.983Z,5.97
2022-08-07T17:56:35.048Z,7.00
2022-08-07T17:59:35.599Z,8.90
2022-08-07T18:02:39.530Z,4.35
2022-08-07T18:06:03.208Z,4.30
2022-08-07T18:09:01.038Z,4.47
2022-08-07T18:12:18.117Z,3.63
2022-08-07T18:15:32.933Z,2.70
2022-08-07T18:18:47.013Z,4.78
2022-08-07T18:21:38.365Z,7.90
2022-08-07T18:24:09.257Z,5.88
2022-08-07T18:26:40.470Z,4.30
2022-08-07T18:30:06.081Z,3.60
2022-08-07T18:32:41.688Z,3.38
2022-08-07T18:35:50.320Z,5.97
2022-08-07T18:40:06.667Z,5.57
2022-08-07T18:42:21.766Z,5.83
2022-08-07T18:45:44.771Z,7.07
2022-08-07T18:50:05.574Z,11.60
2022-08-07T18:52:33.515Z,9.30
2022-08-07T18:54:53.606Z,8.27
2022-08-07T18:57:58.585Z,9.05
2022-08-07T19:00:55.187Z,7.05
2022-08-07T19:03:49.726Z,9.70
2022-08-07T19:06:48.295Z,10.77
2022-08-07T19:09:56.886Z,15.70
2022-08-07T19:12:59.539Z,12.80
2022-08-07T19:16:05.586Z,15.00
2022-08-07T19:18:58.651Z,12.10
2022-08-07T19:25:06.905Z,12.30
2022-08-07T19:30:54.166Z,38.30
2022-08-07T19:31:41.708Z,50.72
2022-08-07T19:33:56.445Z,26.88
2022-08-07T19:36:30.660Z,8.98
2022-08-07T19:39:09.098Z,10.90
2022-08-07T19:42:05.885Z,12.27
2022-08-07T19:45:13.137Z,10.70
2022-08-07T19:48:02.588Z,8.25
2022-08-07T19:50:43.802Z,8.40
2022-08-07T19:54:31.588Z,13.93
2022-08-07T19:58:00.427Z,11.30
2022-08-07T20:00:39.349Z,11.70
2022-08-07T20:03:35.646Z,22.45
2022-08-07T20:06:15.248Z,9.38
2022-08-07T20:09:03.074Z,12.52
2022-08-07T20:12:22.090Z,8.50
2022-08-07T20:14:32.986Z,11.55
2022-08-07T20:17:07.260Z,8.35
2022-08-07T20:19:49.402Z,15.00
2022-08-07T20:22:34.546Z,8.97
2022-08-07T20:25:12.961Z,12.60
2022-08-07T20:27:54.111Z,12.32
2022-08-07T20:30:33.483Z,15.07
2022-08-07T20:33:08.915Z,7.65
2022-08-07T20:35:51.835Z,10.75
2022-08-07T20:38:24.839Z,11.43
2022-08-07T20:41:02.036Z,10.63
2022-08-07T20:43:34.218Z,9.73
2022-08-07T20:46:29.182Z,12.82
2022-08-07T20:49:58.948Z,10.27
2022-08-07T20:51:52.280Z,11.75
2022-08-07T20:54:29.897Z,12.70
2022-08-07T20:57:05.298Z,13.27
2022-08-07T21:00:06.501Z,13.18
2022-08-07T21:02:53.846Z,11.55
2022-08-07T21:05:51.298Z,15.70
2022-08-07T21:08:42.375Z,10.63
2022-08-07T21:11:17.636Z,12.13
2022-08-07T21:14:16.394Z,11.13
2022-08-07T21:16:57.057Z,13.35
2022-08-07T21:19:51.175Z,13.32
2022-08-07T21:22:28.497Z,13.02
2022-08-07T21:25:20.688Z,13.65
2022-08-07T21:28:05.968Z,16.25
2022-08-07T21:34:34.119Z,13.27
2022-08-07T21:37:22.665Z,17.25
2022-08-07T21:40:27.644Z,19.77
2022-08-07T21:43:22.896Z,17.77
2022-08-07T21:46:24.324Z,16.63
2022-08-07T21:49:25.625Z,16.23
2022-08-07T21:54:46.018Z,26.80
2022-08-07T21:57:53.849Z,16.40
2022-08-07T22:00:50.019Z,17.65
2022-08-07T22:04:00.662Z,14.48
2022-08-07T22:07:09.853Z,15.68
2022-08-07T22:09:54.329Z,15.60
2022-08-07T22:12:44.265Z,14.27
2022-08-07T22:16:38.694Z,17.88
2022-08-07T22:18:56.066Z,19.30
2022-08-07T22:22:04.834Z,15.65
2022-08-07T22:24:32.846Z,15.98
2022-08-07T22:27:16.029Z,16.85
2022-08-07T22:29:52.571Z,14.40
2022-08-07T22:32:33.504Z,16.85
2022-08-07T22:35:03.296Z,16.38
2022-08-07T22:38:03.176Z,17.20
2022-08-07T22:41:10.131Z,17.63
2022-08-07T22:44:08.396Z,16.42
2022-08-07T22:47:04.458Z,14.07
2022-08-07T22:49:54.389Z,15.38
2022-08-07T22:52:51.086Z,13.93
2022-08-07T22:55:52.456Z,13.55
2022-08-07T23:01:15.835Z,15.38
2022-08-07T23:03:58.548Z,16.17
2022-08-07T23:06:33.838Z,20.38
2022-08-07T23:10:03.697Z,19.88
2022-08-07T23:13:15.512Z,18.40
2022-08-07T23:16:06.647Z,15.75
2022-08-07T23:19:38.796Z,17.85
2022-08-07T23:23:05.020Z,18.55
2022-08-07T23:25:56.744Z,22.58
2022-08-07T23:28:54.638Z,22.30
2022-08-07T23:32:49.545Z,20.48
2022-08-07T23:34:54.393Z,17.48
2022-08-07T23:38:01.532Z,16.00
2022-08-07T23:40:36.584Z,15.10
2022-08-07T23:43:39.114Z,15.98
2022-08-07T23:46:54.859Z,14.45
2022-08-07T23:49:50.117Z,12.50
2022-08-07T23:53:05.193Z,15.40
2022-08-07T23:55:51.908Z,17.58
2022-08-07T23:59:10.444Z,13.82
